createdAt,value
2022-08-05T00:00:52.682Z,44.93
2022-08-05T00:03:19.886Z,45.49
2022-08-05T00:06:04.935Z,45.21
2022-08-05T00:08:36.137Z,45.28
2022-08-05T00:11:20.292Z,45.84
2022-08-05T00:13:52.919Z,45.80
2022-08-05T00:16:35.318Z,46.20
2022-08-05T00:19:03.826Z,46.29
2022-08-05T00:21:30.910Z,45.62
2022-08-05T00:24:10.528Z,45.76
2022-08-05T00:26:38.609Z,46.16
2022-08-05T00:29:05.837Z,45.79
2022-08-05T00:31:53.696Z,46.68
2022-08-05T00:34:55.794Z,46.76
2022-08-05T00:37:12.593Z,46.73
2022-08-05T00:39:44.133Z,47.75
2022-08-05T00:42:31.766Z,48.03
2022-08-05T00:44:59.711Z,47.75
2022-08-05T00:47:27.232Z,47.76
2022-08-05T00:50:14.036Z,46.90
2022-08-05T00:52:42.342Z,46.72
2022-08-05T00:55:12.661Z,46.91
2022-08-05T00:57:58.643Z,47.57
2022-08-05T01:00:27.584Z,47.38
2022-08-05T01:02:55.579Z,47.77
2022-08-05T01:05:27.511Z,47.42
2022-08-05T01:08:41.838Z,47.31
2022-08-05T01:10:52.426Z,47.55
2022-08-05T01:13:27.448Z,47.38
2022-08-05T01:16:16.017Z,47.78
2022-08-05T01:18:58.052Z,47.50
2022-08-05T01:21:40.209Z,47.56
2022-08-05T01:24:46.984Z,48.00
2022-08-05T01:28:14.917Z,47.89
2022-08-05T01:30:55.298Z,48.21
2022-08-05T01:33:25.257Z,48.87
2022-08-05T01:35:55.376Z,48.50
2022-08-05T01:38:29.209Z,48.25
2022-08-05T01:41:01.572Z,48.10
2022-08-05T01:43:30.338Z,48.19
2022-08-05T01:46:07.242Z,48.12
2022-08-05T01:48:45.022Z,48.55
2022-08-05T01:51:18.063Z,49.55
2022-08-05T01:53:56.947Z,48.58
2022-08-05T01:58:14.621Z,50.02
2022-08-05T01:59:21.639Z,51.15
2022-08-05T02:01:49.838Z,51.08
2022-08-05T02:04:17.886Z,50.67
2022-08-05T02:06:45.229Z,49.78
2022-08-05T02:09:12.364Z,50.25
2022-08-05T02:11:52.232Z,50.00
2022-08-05T02:14:32.436Z,49.57
2022-08-05T02:17:16.982Z,49.41
2022-08-05T02:20:01.886Z,50.28
2022-08-05T02:22:30.752Z,51.07
2022-08-05T02:25:03.667Z,50.98
2022-08-05T02:27:59.616Z,51.15
2022-08-05T02:30:22.390Z,51.67
2022-08-05T02:32:51.341Z,51.95
2022-08-05T02:35:28.027Z,52.35
2022-08-05T02:38:02.167Z,52.78
2022-08-05T02:40:30.850Z,52.27
2022-08-05T02:42:59.709Z,52.24
2022-08-05T02:45:28.455Z,53.14
2022-08-05T02:48:06.839Z,52.94
2022-08-05T02:50:43.790Z,52.81
2022-08-05T02:53:18.984Z,53.02
2022-08-05T02:55:54.301Z,53.05
2022-08-05T02:58:28.964Z,53.01
2022-08-05T03:00:59.564Z,53.41
2022-08-05T03:03:34.361Z,53.62
2022-08-05T03:06:55.095Z,54.01
2022-08-05T03:09:05.113Z,53.83
2022-08-05T03:11:55.420Z,53.35
2022-08-05T03:14:24.455Z,53.26
2022-08-05T03:16:53.679Z,52.91
2022-08-05T03:19:34.637Z,52.71
2022-08-05T03:22:05.012Z,52.86
2022-08-05T03:24:44.682Z,53.66
2022-08-05T03:27:15.915Z,54.83
2022-08-05T03:29:45.424Z,54.70
2022-08-05T03:32:30.965Z,54.34
2022-08-05T03:34:59.343Z,54.80
2022-08-05T03:37:27.877Z,54.25
2022-08-05T03:40:01.183Z,54.43
2022-08-05T03:42:33.033Z,54.41
2022-08-05T03:45:21.661Z,55.25
2022-08-05T03:47:50.452Z,54.82
2022-08-05T03:50:17.745Z,54.22
2022-08-05T03:55:34.325Z,54.46
2022-08-05T03:56:10.053Z,55.67
2022-08-05T03:58:29.288Z,55.79
2022-08-05T04:00:57.968Z,56.31
2022-08-05T04:03:29.217Z,56.28
2022-08-05T04:05:58.081Z,56.14
2022-08-05T04:08:35.120Z,56.86
2022-08-05T04:11:05.135Z,55.47
2022-08-05T04:13:51.106Z,55.57
2022-08-05T04:16:24.855Z,55.62
2022-08-05T04:18:53.864Z,57.32
2022-08-05T04:22:09.258Z,57.68
2022-08-05T04:24:19.153Z,59.54
2022-08-05T04:26:49.613Z,60.62
2022-08-05T04:29:17.182Z,61.68
2022-08-05T04:31:44.241Z,62.28
2022-08-05T04:34:18.361Z,62.21
2022-08-05T04:36:59.243Z,62.55
2022-08-05T04:39:28.105Z,61.55
2022-08-05T04:41:55.943Z,61.24
2022-08-05T04:44:29.837Z,61.66
2022-08-05T04:46:58.781Z,61.34
2022-08-05T04:49:38.722Z,62.85
2022-08-05T04:52:13.997Z,61.58
2022-08-05T04:54:42.566Z,61.15
2022-08-05T04:57:09.655Z,62.26
2022-08-05T04:59:39.007Z,62.42
2022-08-05T05:02:36.841Z,60.87
2022-08-05T05:05:01.837Z,58.66
2022-08-05T05:07:32.317Z,58.06
2022-08-05T05:10:04.253Z,58.91
2022-08-05T05:12:31.738Z,58.05
2022-08-05T05:14:58.903Z,60.15
2022-08-05T05:17:56.511Z,57.78
2022-08-05T05:20:28.553Z,57.36
2022-08-05T05:22:56.968Z,57.40
2022-08-05T05:25:32.821Z,57.09
2022-08-05T05:28:08.517Z,57.21
2022-08-05T05:30:37.247Z,55.86
2022-08-05T05:33:16.001Z,55.89
2022-08-05T05:35:45.300Z,55.29
2022-08-05T05:38:13.817Z,55.55
2022-08-05T05:40:49.707Z,54.42
2022-08-05T05:43:57.345Z,55.34
2022-08-05T05:46:45.286Z,54.34
2022-08-05T05:49:22.671Z,55.30
2022-08-05T05:51:50.890Z,55.42
2022-08-05T05:54:20.721Z,54.23
2022-08-05T05:56:49.761Z,53.61
2022-08-05T05:59:17.218Z,53.44
2022-08-05T06:01:57.631Z,54.38
2022-08-05T06:04:25.321Z,53.90
2022-08-05T06:06:53.791Z,53.07
2022-08-05T06:09:25.750Z,53.16
2022-08-05T06:13:06.154Z,52.88
2022-08-05T06:16:28.194Z,51.85
2022-08-05T06:18:44.928Z,51.89
2022-08-05T06:21:16.639Z,52.13
2022-08-05T06:23:46.001Z,51.24
2022-08-05T06:26:20.899Z,51.61
2022-08-05T06:28:48.826Z,50.84
2022-08-05T06:31:17.986Z,49.71
2022-08-05T06:34:07.263Z,49.19
2022-08-05T06:36:56.709Z,48.68
2022-08-05T06:39:26.867Z,48.55
2022-08-05T06:41:58.862Z,49.08
2022-08-05T06:44:30.135Z,49.35
2022-08-05T06:48:44.390Z,49.36
2022-08-05T06:51:09.923Z,49.67
2022-08-05T06:53:39.110Z,50.20
2022-08-05T06:56:26.131Z,49.90
2022-08-05T06:58:54.715Z,49.94
2022-08-05T07:01:22.699Z,50.03
2022-08-05T07:03:50.005Z,49.90
2022-08-05T07:06:20.618Z,49.92
2022-08-05T07:08:51.943Z,50.04
2022-08-05T07:11:25.408Z,50.29
2022-08-05T07:14:20.735Z,50.29
2022-08-05T07:18:00.824Z,50.51
2022-08-05T07:22:35.640Z,49.28
2022-08-05T07:25:23.981Z,48.38
2022-08-05T07:27:58.503Z,48.02
2022-08-05T07:30:34.519Z,47.53
2022-08-05T07:33:09.955Z,47.04
2022-08-05T07:36:04.657Z,47.22
2022-08-05T07:38:33.580Z,47.35
2022-08-05T07:42:09.396Z,47.19
2022-08-05T07:43:56.274Z,48.22
2022-08-05T07:46:26.044Z,48.17
2022-08-05T07:49:03.125Z,47.65
2022-08-05T07:51:40.378Z,48.08
2022-08-05T07:54:11.513Z,48.27
2022-08-05T07:57:01.507Z,47.31
2022-08-05T07:59:38.393Z,46.90
2022-08-05T08:02:16.996Z,46.89
2022-08-05T08:04:49.504Z,45.83
2022-08-05T08:07:28.421Z,44.81
2022-08-05T08:10:01.186Z,44.41
2022-08-05T08:12:48.638Z,43.71
2022-08-05T08:15:16.253Z,43.72
2022-08-05T08:17:49.921Z,43.49
2022-08-05T08:21:00.887Z,42.42
2022-08-05T08:24:01.846Z,41.95
2022-08-05T08:26:04.471Z,42.22
2022-08-05T08:28:36.716Z,41.40
2022-08-05T08:31:09.691Z,40.88
2022-08-05T08:33:45.607Z,41.56
2022-08-05T08:36:38.830Z,41.66
2022-08-05T08:39:01.592Z,42.12
2022-08-05T08:41:52.548Z,42.04
2022-08-05T08:45:16.608Z,41.65
2022-08-05T08:47:47.216Z,41.03
2022-08-05T08:50:14.664Z,41.10
2022-08-05T08:52:47.385Z,41.31
2022-08-05T08:56:02.018Z,41.76
2022-08-05T08:58:08.575Z,41.32
2022-08-05T09:00:36.189Z,40.94
2022-08-05T09:03:05.507Z,41.31
2022-08-05T09:05:38.368Z,42.00
2022-08-05T09:08:27.265Z,39.63
2022-08-05T09:10:54.703Z,39.42
2022-08-05T09:13:23.591Z,39.72
2022-08-05T09:15:51.287Z,38.99
2022-08-05T09:18:18.384Z,38.66
2022-08-05T09:20:45.921Z,38.52
2022-08-05T09:23:18.980Z,37.94
2022-08-05T09:26:02.277Z,37.87
2022-08-05T09:28:33.579Z,37.98
2022-08-05T09:31:22.480Z,37.67
2022-08-05T09:34:01.046Z,37.35
2022-08-05T09:36:54.637Z,38.05
2022-08-05T09:39:27.729Z,37.96
2022-08-05T09:42:13.541Z,37.91
2022-08-05T09:44:49.461Z,37.23
2022-08-05T09:47:22.390Z,36.14
2022-08-05T09:50:01.987Z,35.87
2022-08-05T09:52:33.983Z,35.18
2022-08-05T09:55:06.327Z,35.37
2022-08-05T09:57:39.657Z,35.77
2022-08-05T10:00:17.837Z,35.78
2022-08-05T10:02:51.478Z,36.17
2022-08-05T10:05:19.774Z,37.23
2022-08-05T10:08:34.865Z,36.29
2022-08-05T10:10:45.081Z,36.10
2022-08-05T10:13:27.427Z,35.90
2022-08-05T10:16:31.118Z,36.03
2022-08-05T10:18:59.932Z,35.18
2022-08-05T10:21:35.306Z,35.48
2022-08-05T10:24:10.689Z,35.58
2022-08-05T10:26:51.551Z,35.61
2022-08-05T10:30:41.169Z,35.23
2022-08-05T10:32:53.843Z,35.83
2022-08-05T10:35:01.463Z,35.79
2022-08-05T10:37:43.915Z,35.70
2022-08-05T10:40:28.393Z,34.86
2022-08-05T10:42:58.547Z,34.67
2022-08-05T10:45:39.848Z,34.50
2022-08-05T10:48:57.386Z,33.82
2022-08-05T10:51:48.646Z,33.72
2022-08-05T10:54:47.227Z,32.82
2022-08-05T10:57:29.354Z,32.85
2022-08-05T11:00:19.246Z,32.73
2022-08-05T11:03:00.304Z,31.80
2022-08-05T11:06:03.846Z,32.42
2022-08-05T11:08:37.432Z,31.88
2022-08-05T11:11:33.171Z,30.40
2022-08-05T11:14:12.756Z,31.48
2022-08-05T11:16:56.238Z,31.42
2022-08-05T11:20:16.982Z,30.96
2022-08-05T11:22:35.331Z,30.89
2022-08-05T11:26:06.279Z,29.99
2022-08-05T11:28:12.375Z,30.71
2022-08-05T11:30:58.410Z,30.79
2022-08-05T11:33:34.578Z,30.81
2022-08-05T11:36:33.944Z,31.40
2022-08-05T11:39:01.905Z,30.32
2022-08-05T11:41:58.072Z,30.86
2022-08-05T11:44:40.473Z,30.77
2022-08-05T11:47:14.219Z,29.94
2022-08-05T11:49:49.700Z,29.82
2022-08-05T11:52:29.477Z,29.83
2022-08-05T11:54:59.389Z,30.27
2022-08-05T11:58:08.272Z,30.16
2022-08-05T12:00:30.404Z,30.01
2022-08-05T12:02:57.829Z,30.05
2022-08-05T12:05:36.108Z,30.02
2022-08-05T12:08:10.068Z,30.09
2022-08-05T12:10:45.110Z,29.85
2022-08-05T12:13:48.120Z,30.23
2022-08-05T12:16:17.797Z,30.00
2022-08-05T12:18:49.100Z,29.43
2022-08-05T12:21:26.923Z,30.05
2022-08-05T12:24:21.190Z,28.86
2022-08-05T12:27:00.163Z,28.91
2022-08-05T12:29:38.909Z,28.67
2022-08-05T12:32:07.531Z,29.01
2022-08-05T12:34:37.841Z,28.75
2022-08-05T12:37:29.754Z,28.18
2022-08-05T12:40:03.725Z,28.01
2022-08-05T12:42:39.363Z,28.07
2022-08-05T12:45:09.565Z,27.99
2022-08-05T12:47:38.358Z,27.97
2022-08-05T12:50:17.289Z,28.51
2022-08-05T12:52:57.913Z,28.35
2022-08-05T12:55:26.633Z,28.08
2022-08-05T12:58:38.929Z,27.91
2022-08-05T13:02:00.416Z,27.69
2022-08-05T13:03:34.814Z,27.95
2022-08-05T13:06:11.811Z,27.83
2022-08-05T13:08:41.513Z,27.83
2022-08-05T13:11:25.322Z,27.63
2022-08-05T13:14:20.391Z,27.54
2022-08-05T13:16:56.618Z,27.54
2022-08-05T13:19:52.090Z,27.71
2022-08-05T13:22:15.205Z,27.64
2022-08-05T13:25:00.420Z,27.62
2022-08-05T13:27:35.708Z,26.87
2022-08-05T13:30:34.318Z,27.21
2022-08-05T13:32:56.510Z,26.80
2022-08-05T13:35:31.372Z,26.21
2022-08-05T13:38:20.388Z,26.71
2022-08-05T13:40:58.470Z,26.29
2022-08-05T13:43:44.466Z,26.27
2022-08-05T13:46:13.564Z,26.61
2022-08-05T13:48:57.308Z,26.79
2022-08-05T13:51:29.580Z,27.29
2022-08-05T13:54:12.635Z,26.88
2022-08-05T13:56:45.014Z,27.39
2022-08-05T13:59:24.451Z,27.86
2022-08-05T14:01:59.123Z,26.76
2022-08-05T14:04:51.112Z,27.57
2022-08-05T14:07:25.592Z,26.23
2022-08-05T14:10:08.817Z,26.97
2022-08-05T14:12:36.613Z,26.65
2022-08-05T14:15:05.897Z,27.10
2022-08-05T14:17:51.485Z,27.36
2022-08-05T14:20:27.300Z,27.68
2022-08-05T14:22:54.716Z,28.10
2022-08-05T14:25:27.951Z,28.26
2022-08-05T14:27:55.838Z,27.78
2022-08-05T14:30:23.001Z,27.62
2022-08-05T14:32:53.827Z,27.28
2022-08-05T14:35:22.802Z,26.98
2022-08-05T14:37:53.637Z,26.82
2022-08-05T14:40:24.127Z,27.48
2022-08-05T14:42:52.090Z,27.53
2022-08-05T14:45:19.325Z,27.37
2022-08-05T14:48:03.916Z,26.82
2022-08-05T14:50:36.020Z,26.83
2022-08-05T14:53:06.978Z,26.60
2022-08-05T14:55:39.778Z,26.22
2022-08-05T14:58:11.251Z,26.98
2022-08-05T15:00:59.161Z,26.69
2022-08-05T15:03:33.746Z,27.16
2022-08-05T15:06:12.869Z,27.41
2022-08-05T15:08:58.250Z,27.39
2022-08-05T15:11:51.404Z,26.98
2022-08-05T15:14:33.461Z,27.53
2022-08-05T15:17:01.992Z,27.81
2022-08-05T15:19:31.747Z,27.66
2022-08-05T15:22:01.869Z,27.71
2022-08-05T15:24:29.209Z,27.90
2022-08-05T15:26:57.070Z,28.78
2022-08-05T15:29:29.794Z,28.55
2022-08-05T15:32:03.127Z,28.79
2022-08-05T15:34:32.884Z,28.46
2022-08-05T15:37:06.086Z,29.22
2022-08-05T15:40:58.326Z,29.31
2022-08-05T15:42:54.076Z,29.17
2022-08-05T15:45:11.326Z,29.41
2022-08-05T15:47:38.882Z,29.50
2022-08-05T15:50:07.216Z,29.81
2022-08-05T15:52:53.128Z,29.60
2022-08-05T15:55:25.008Z,29.94
2022-08-05T15:58:09.715Z,30.40
2022-08-05T16:00:50.508Z,30.02
2022-08-05T16:03:24.025Z,30.22
2022-08-05T16:05:52.836Z,30.66
2022-08-05T16:08:23.148Z,30.29
2022-08-05T16:10:57.882Z,30.43
2022-08-05T16:13:34.451Z,30.67
2022-08-05T16:16:03.302Z,30.50
2022-08-05T16:18:32.924Z,30.61
2022-08-05T16:21:04.227Z,30.77
2022-08-05T16:23:33.136Z,30.61
2022-08-05T16:26:26.132Z,30.94
2022-08-05T16:28:55.477Z,30.78
2022-08-05T16:31:22.618Z,30.55
2022-08-05T16:33:52.135Z,30.54
2022-08-05T16:36:23.819Z,30.59
2022-08-05T16:38:54.802Z,30.54
2022-08-05T16:42:15.015Z,30.00
2022-08-05T16:44:10.368Z,30.40
2022-08-05T16:46:41.026Z,30.29
2022-08-05T16:49:09.245Z,30.73
2022-08-05T16:51:50.310Z,30.75
2022-08-05T16:54:24.820Z,31.14
2022-08-05T16:56:53.072Z,31.02
2022-08-05T16:59:20.317Z,31.23
2022-08-05T17:01:52.999Z,31.58
2022-08-05T17:04:21.589Z,31.87
2022-08-05T17:06:53.353Z,31.65
2022-08-05T17:09:21.183Z,31.78
2022-08-05T17:11:54.649Z,32.47
2022-08-05T17:14:37.083Z,32.81
2022-08-05T17:17:14.311Z,33.39
2022-08-05T17:19:45.683Z,33.18
2022-08-05T17:22:24.892Z,33.86
2022-08-05T17:24:57.730Z,33.57
2022-08-05T17:27:27.231Z,34.09
2022-08-05T17:30:02.363Z,34.38
2022-08-05T17:32:30.512Z,34.43
2022-08-05T17:35:00.958Z,34.82
2022-08-05T17:37:40.234Z,34.85
2022-08-05T17:40:10.838Z,34.93
2022-08-05T17:42:42.980Z,35.47
2022-08-05T17:45:21.063Z,35.17
2022-08-05T17:47:53.908Z,35.56
2022-08-05T17:50:28.571Z,35.93
2022-08-05T17:52:58.964Z,36.03
2022-08-05T17:55:34.106Z,35.92
2022-08-05T17:58:04.755Z,36.27
2022-08-05T18:00:34.624Z,36.68
2022-08-05T18:03:02.643Z,36.85
2022-08-05T18:05:31.687Z,37.01
2022-08-05T18:08:02.866Z,36.96
2022-08-05T18:10:32.131Z,37.32
2022-08-05T18:13:01.961Z,37.74
2022-08-05T18:15:35.168Z,38.08
2022-08-05T18:18:10.876Z,38.85
2022-08-05T18:20:38.770Z,38.87
2022-08-05T18:23:11.263Z,39.50
2022-08-05T18:25:45.213Z,39.96
2022-08-05T18:28:16.066Z,40.30
2022-08-05T18:30:45.120Z,40.56
2022-08-05T18:33:13.861Z,41.59
2022-08-05T18:36:01.316Z,42.37
2022-08-05T18:38:30.933Z,43.08
2022-08-05T18:41:55.344Z,43.47
2022-08-05T18:43:48.443Z,43.78
2022-08-05T18:46:20.285Z,44.11
2022-08-05T18:48:51.956Z,44.80
2022-08-05T18:52:06.257Z,45.03
2022-08-05T18:54:31.416Z,45.59
2022-08-05T18:57:01.212Z,46.11
2022-08-05T18:59:43.559Z,47.07
2022-08-05T19:02:26.834Z,47.68
2022-08-05T19:05:01.399Z,48.17
2022-08-05T19:08:02.746Z,48.78
2022-08-05T19:10:30.568Z,49.04
2022-08-05T19:12:57.649Z,49.22
2022-08-05T19:15:57.766Z,49.50
2022-08-05T19:18:21.014Z,49.66
2022-08-05T19:20:52.115Z,50.80
2022-08-05T19:24:04.434Z,50.62
2022-08-05T19:26:08.530Z,51.00
2022-08-05T19:28:43.640Z,51.30
2022-08-05T19:31:13.566Z,51.70
2022-08-05T19:33:48.412Z,52.14
2022-08-05T19:36:26.537Z,51.80
2022-08-05T19:38:55.229Z,52.62
2022-08-05T19:41:58.278Z,52.81
2022-08-05T19:44:16.735Z,53.20
2022-08-05T19:46:45.665Z,53.04
2022-08-05T19:49:16.610Z,53.02
2022-08-05T19:52:09.354Z,53.08
2022-08-05T19:54:34.167Z,53.50
2022-08-05T19:57:08.419Z,53.60
2022-08-05T19:59:56.355Z,53.53
2022-08-05T20:02:30.260Z,53.89
2022-08-05T20:04:59.599Z,54.09
2022-08-05T20:07:46.618Z,54.29
2022-08-05T20:10:15.341Z,54.47
2022-08-05T20:12:48.312Z,55.41
2022-08-05T20:15:48.332Z,55.12
2022-08-05T20:18:10.398Z,55.95
2022-08-05T20:20:52.144Z,56.50
2022-08-05T20:23:23.973Z,55.35
2022-08-05T20:26:08.995Z,55.21
2022-08-05T20:28:44.165Z,55.11
2022-08-05T20:31:11.957Z,54.84
2022-08-05T20:33:42.342Z,55.08
2022-08-05T20:36:10.064Z,55.21
2022-08-05T20:38:40.756Z,55.42
2022-08-05T20:41:26.737Z,55.49
2022-08-05T20:44:00.375Z,55.65
2022-08-05T20:46:31.483Z,56.11
2022-08-05T20:48:59.032Z,56.21
2022-08-05T20:51:26.495Z,56.48
2022-08-05T20:53:56.474Z,56.89
2022-08-05T20:56:29.815Z,57.07
2022-08-05T20:58:59.941Z,57.71
2022-08-05T21:01:39.048Z,57.98
2022-08-05T21:04:10.733Z,58.28
2022-08-05T21:06:38.368Z,58.72
2022-08-05T21:09:14.137Z,59.30
2022-08-05T21:12:07.726Z,59.85
2022-08-05T21:14:34.833Z,60.07
2022-08-05T21:17:05.234Z,60.63
2022-08-05T21:19:46.369Z,61.28
2022-08-05T21:22:18.345Z,61.50
2022-08-05T21:24:51.993Z,61.97
2022-08-05T21:27:20.664Z,62.25
2022-08-05T21:29:55.377Z,63.11
2022-08-05T21:32:27.109Z,64.21
2022-08-05T21:34:56.082Z,64.64
2022-08-05T21:37:41.308Z,64.79
2022-08-05T21:40:13.084Z,65.59
2022-08-05T21:42:44.712Z,66.69
2022-08-05T21:45:25.027Z,67.28
2022-08-05T21:48:02.576Z,68.43
2022-08-05T21:50:33.713Z,69.28
2022-08-05T21:53:08.311Z,69.37
2022-08-05T21:56:05.321Z,70.21
2022-08-05T21:58:32.126Z,70.48
2022-08-05T22:00:59.639Z,70.13
2022-08-05T22:03:51.691Z,71.20
2022-08-05T22:06:15.768Z,71.23
2022-08-05T22:08:42.984Z,75.43
2022-08-05T22:11:11.895Z,77.49
2022-08-05T22:14:33.608Z,80.30
2022-08-05T22:16:41.743Z,82.87
2022-08-05T22:22:04.191Z,84.64
2022-08-05T22:24:52.087Z,80.64
2022-08-05T22:28:08.176Z,80.52
2022-08-05T22:30:25.346Z,79.81
2022-08-05T22:33:02.269Z,80.76
2022-08-05T22:35:38.619Z,77.92
2022-08-05T22:38:16.542Z,78.37
2022-08-05T22:40:49.891Z,78.71
2022-08-05T22:43:37.244Z,81.09
2022-08-05T22:46:12.070Z,77.59
2022-08-05T22:48:48.134Z,81.10
2022-08-05T22:51:22.858Z,82.92
2022-08-05T22:53:57.415Z,83.31
2022-08-05T22:56:29.718Z,84.36
2022-08-05T22:59:03.977Z,86.30
2022-08-05T23:02:04.803Z,84.61
2022-08-05T23:04:33.746Z,84.22
2022-08-05T23:07:00.948Z,86.22
2022-08-05T23:09:53.490Z,84.87
2022-08-05T23:12:17.834Z,87.05
2022-08-05T23:14:47.558Z,87.92
2022-08-05T23:17:34.568Z,86.70
2022-08-05T23:20:16.844Z,84.32
2022-08-05T23:22:47.770Z,83.58
2022-08-05T23:25:17.348Z,81.52
2022-08-05T23:28:03.982Z,86.50
2022-08-05T23:30:40.269Z,85.36
2022-08-05T23:33:16.079Z,85.93
2022-08-05T23:35:50.244Z,87.63
2022-08-05T23:38:18.041Z,87.76
2022-08-05T23:40:49.383Z,87.82
2022-08-05T23:43:25.765Z,88.50
2022-08-05T23:46:19.602Z,86.18
2022-08-05T23:49:00.942Z,87.91
2022-08-05T23:51:53.575Z,90.02
2022-08-05T23:54:26.642Z,89.96
2022-08-05T23:57:04.207Z,88.84
2022-08-05T23:59:37.648Z,91.59
